CDT,Max TemperatureF,Mean TemperatureF,Min TemperatureF,Max Dew PointF,MeanDew PointF,Min DewpointF,Max Humidity, Mean Humidity, Min Humidity, Max Sea Level PressureIn, Mean Sea Level PressureIn, Min Sea Level PressureIn, Max VisibilityMiles, Mean VisibilityMiles, Min VisibilityMiles, Max Wind SpeedMPH, Mean Wind SpeedMPH, Max Gust SpeedMPH,PrecipitationIn, CloudCover, Events, WindDirDegrees
2012-10-1,70,56,41,48,43,38,89,65,36,29.96,29.89,29.84,10,10,10,8,3,,0.00,0,,188
2012-10-2,71,58,46,49,44,39,93,65,33,29.98,29.93,29.89,10,10,6,9,6,,0.00,0,,55
2012-10-3,73,56,41,51,44,39,100,85,40,30.01,29.97,29.93,10,4,0,7,1,,0.00,0,Fog,110
2012-10-4,64,54,44,50,39,28,89,61,35,30.09,29.97,29.90,10,10,10,20,9,31,0.00,1,,232
2012-10-5,52,44,36,28,26,23,73,53,36,30.09,30.06,30.01,10,10,10,20,11,28,0.00,4,,273
2012-10-6,46,40,35,28,26,23,70,59,45,30.23,30.15,30.05,10,10,10,16,11,23,0.00,7,,320
2012-10-7,51,39,28,25,21,16,78,49,27,30.22,30.14,30.06,10,10,10,15,5,20,0.00,2,,251
2012-10-8,60,46,33,32,26,19,59,48,35,30.04,29.90,29.77,10,10,10,20,9,30,0.00,4,,182
2012-10-9,55,46,37,45,40,32,93,81,42,29.89,29.80,29.75,10,8,3,20,10,26,0.26,7,Rain,236
2012-10-10,48,39,30,31,26,21,85,61,36,30.10,30.04,29.90,10,10,10,18,9,26,0.00,4,,268
2012-10-11,53,42,28,34,26,15,75,50,28,30.38,30.09,29.90,10,10,10,16,11,24,0.00,4,,294
2012-10-12,51,36,23,27,21,18,88,58,29,30.51,30.40,30.23,10,10,10,10,4,16,0.00,0,,155
2012-10-13,57,46,39,55,43,29,100,94,62,30.20,29.90,29.73,10,3,0,9,5,,1.24,8,Fog-Rain,150
2012-10-14,53,48,41,52,45,37,100,91,79,29.82,29.67,29.60,10,6,1,16,9,24,1.38,8,Rain,12
2012-10-15,57,46,35,40,36,33,93,77,44,29.96,29.91,29.80,10,10,10,10,7,16,0.00,2,,314
2012-10-16,69,54,41,46,42,37,86,65,40,29.90,29.66,29.46,10,10,10,10,5,18,0.00,3,,142
2012-10-17,66,54,42,55,49,41,100,89,54,29.44,29.34,29.24,10,6,1,14,4,22,0.58,5,Rain,187
2012-10-18,50,46,42,46,42,39,93,88,80,29.44,29.29,29.21,10,10,4,9,6,,0.15,8,Rain,193
2012-10-19,50,44,37,41,39,35,93,83,63,29.69,29.53,29.42,10,10,3,8,4,,0.02,7,Rain,37
2012-10-20,55,43,33,41,36,31,100,90,59,29.92,29.82,29.71,10,6,1,7,3,,0.00,3,,308
2012-10-21,64,46,28,45,35,28,100,82,50,30.01,29.95,29.90,10,6,1,12,1,,0.00,0,,137
2012-10-22,60,53,46,50,47,44,90,79,67,29.98,29.96,29.93,10,8,4,10,5,21,0.00,6,,78
2012-10-23,63,56,50,61,53,46,97,91,82,29.96,29.90,29.83,10,5,1,10,7,,0.00,7,,117
2012-10-24,71,66,60,64,62,59,100,90,78,29.88,29.82,29.70,10,5,0,8,3,,0.00,8,Fog,148
2012-10-25,69,52,35,63,49,28,94,87,73,30.06,29.66,29.54,10,7,2,20,9,30,0.51,8,Rain,270
2012-10-26,43,36,30,27,24,20,79,62,47,30.38,30.31,30.15,10,10,10,15,8,24,0.00,4,,291
2012-10-27,44,34,25,25,19,13,88,58,31,30.41,30.37,30.34,10,10,10,10,3,17,0.00,2,,313
2012-10-28,46,35,24,25,20,17,84,59,31,30.43,30.39,30.35,10,10,10,7,1,,0.00,0,,85
2012-10-29,50,36,21,27,21,17,88,61,28,30.43,30.35,30.24,10,10,8,8,2,,0.00,0,,2
2012-10-30,46,38,30,27,22,17,79,58,33,30.23,30.07,29.96,10,10,10,20,10,32,0.00,0,,352
2012-10-31,46,36,27,25,19,12,81,55,33,29.96,29.93,29.89,10,10,10,15,9,21,0.00,0,,318